sim
Sign-in with your pilot id or email,
or register
Callsign
Passwort

Schedule Details

Flight Number: OEO2747
Departure: Athens Eleftherios Venizelos (LGAV) at 10:00
Arrival: Munich Airport (EDDM) at 12:40

Weather Information
Getting current METAR information for LGAV 250720Z VRB03KT CAVOK 26/15 Q1012 NOSIG
Getting current METAR information for EDDM 250720Z 28017G27KT 4500 SHRA FEW008 SCT020CB BKN040 11/09 Q1001 BECMG 25010KT 7000 NSW

Schedule Frequency

Route Map